Time;durP1;ratioP1;P1;durP2;ratioP2;P2;SDS_P1;SDS_P2;PMS_P1;PMS_P2;Temp;Humidity;BMP_temperature;BMP_pressure;BME280_temperature;BME280_humidity;BME280_pressure;Samples;Min_cycle;Max_cycle;Signal;HPM_P1;HPM_P2
2023/08/30 00:00:40;;;;;;;4.10;3.42;;;16.30;99.90;;;;;;4844831;29;20803;-81
2023/08/30 00:03:06;;;;;;;5.15;3.50;;;16.30;99.90;;;;;;4861934;29;20037;-82
2023/08/30 00:05:31;;;;;;;4.55;3.28;;;16.30;99.90;;;;;;4844983;29;20478;-81
2023/08/30 00:07:57;;;;;;;3.95;3.38;;;16.30;99.90;;;;;;4844970;29;20082;-81
2023/08/30 00:10:23;;;;;;;3.58;3.10;;;16.30;99.90;;;;;;4845204;29;20124;-85
2023/08/30 00:12:48;;;;;;;4.65;2.95;;;16.20;99.90;;;;;;4864933;29;20045;-81
2023/08/30 00:15:14;;;;;;;4.22;3.33;;;16.20;99.90;;;;;;4865577;29;20075;-82
2023/08/30 00:17:40;;;;;;;5.90;2.95;;;16.20;99.90;;;;;;4848543;29;20042;-82
2023/08/30 00:20:06;;;;;;;3.78;3.13;;;16.20;99.90;;;;;;4848972;29;20033;-82
2023/08/30 00:22:33;;;;;;;3.90;3.03;;;16.20;99.90;;;;;;4864875;29;20034;-82
2023/08/30 00:24:59;;;;;;;4.85;3.30;;;16.20;99.90;;;;;;4865293;29;20030;-82
2023/08/30 00:27:24;;;;;;;4.32;3.50;;;16.20;99.90;;;;;;4848713;29;20040;-84
2023/08/30 00:29:50;;;;;;;4.43;2.70;;;16.10;99.90;;;;;;4848508;29;20045;-81
2023/08/30 00:32:15;;;;;;;4.72;3.17;;;16.10;99.90;;;;;;4848881;29;20081;-81
2023/08/30 00:34:41;;;;;;;6.90;4.03;;;16.10;99.90;;;;;;4864774;29;20383;-81
2023/08/30 00:37:06;;;;;;;4.57;3.17;;;16.10;99.90;;;;;;4864929;29;20117;-81
2023/08/30 00:39:32;;;;;;;3.67;2.95;;;16.10;99.90;;;;;;4848370;29;20463;-82
2023/08/30 00:41:58;;;;;;;3.88;2.85;;;16.10;99.90;;;;;;4848730;29;20029;-81
2023/08/30 00:44:24;;;;;;;3.85;3.42;;;16.10;99.90;;;;;;4848429;29;20129;-85
2023/08/30 00:46:50;;;;;;;3.75;3.03;;;16.10;99.90;;;;;;4864613;29;20108;-81
2023/08/30 00:49:15;;;;;;;4.53;3.10;;;16.10;99.90;;;;;;4864857;29;20034;-81
2023/08/30 00:51:41;;;;;;;4.93;2.65;;;16.10;99.90;;;;;;4847702;29;20033;-82
2023/08/30 00:54:07;;;;;;;4.03;2.85;;;16.10;99.90;;;;;;4848301;29;20033;-81
2023/08/30 00:56:33;;;;;;;5.38;3.00;;;16.10;99.90;;;;;;4863959;29;20029;-82
2023/08/30 00:59:00;;;;;;;7.00;2.50;;;16.10;99.90;;;;;;4848013;29;20037;-82
2023/08/30 01:01:26;;;;;;;4.32;2.90;;;16.10;99.90;;;;;;4847484;29;20077;-85
2023/08/30 01:03:52;;;;;;;3.83;3.13;;;16.10;99.90;;;;;;4848047;29;20431;-81
2023/08/30 01:06:17;;;;;;;4.78;3.20;;;16.10;99.90;;;;;;4848173;29;20050;-81
2023/08/30 01:08:43;;;;;;;5.15;2.95;;;16.10;99.90;;;;;;4847580;29;20379;-82
2023/08/30 01:11:32;;;;;;;4.03;3.00;;;16.00;99.90;;;;;;4847866;29;20044;-82
2023/08/30 01:14:06;;;;;;;3.20;2.88;;;16.00;99.90;;;;;;4847982;29;20033;-81
2023/08/30 01:16:32;;;;;;;3.55;2.75;;;16.00;99.90;;;;;;4847491;29;20042;-82
2023/08/30 01:19:02;;;;;;;4.50;3.05;;;16.00;99.90;;;;;;4847644;29;20095;-81
2023/08/30 01:21:55;;;;;;;3.65;2.70;;;16.00;99.90;;;;;;4863429;29;20113;-86
2023/08/30 01:24:29;;;;;;;3.05;2.58;;;16.00;99.90;;;;;;4855903;29;20386;-82
2023/08/30 01:27:09;;;;;;;5.20;2.97;;;16.10;99.90;;;;;;4847858;29;20033;-81
2023/08/30 01:29:38;;;;;;;4.18;2.95;;;16.10;99.90;;;;;;4863397;29;20038;-82
2023/08/30 01:32:04;;;;;;;2.97;2.58;;;16.10;99.90;;;;;;4847581;29;20034;-80
2023/08/30 01:34:30;;;;;;;6.78;2.88;;;16.00;99.90;;;;;;4847118;29;20499;-84
2023/08/30 01:36:57;;;;;;;4.57;3.08;;;16.10;99.90;;;;;;4863966;29;20058;-81
2023/08/30 01:39:24;;;;;;;4.18;2.58;;;16.10;99.90;;;;;;4847587;29;20181;-80
2023/08/30 01:41:52;;;;;;;2.95;2.40;;;16.10;99.90;;;;;;4846916;29;20061;-82
2023/08/30 01:44:18;;;;;;;4.78;2.92;;;16.10;99.90;;;;;;4847299;29;20368;-82
2023/08/30 01:46:45;;;;;;;3.78;3.00;;;16.20;99.90;;;;;;4846916;29;20037;-82
2023/08/30 01:49:12;;;;;;;3.38;2.80;;;16.20;99.90;;;;;;4847196;29;20116;-83
2023/08/30 01:51:38;;;;;;;3.80;2.60;;;16.20;99.90;;;;;;4847020;29;20026;-83
2023/08/30 01:54:05;;;;;;;3.00;2.70;;;16.20;99.90;;;;;;4846922;29;20129;-83
2023/08/30 01:56:31;;;;;;;3.38;2.72;;;16.20;99.90;;;;;;4846701;29;20086;-86
2023/08/30 01:58:56;;;;;;;3.85;2.70;;;16.20;99.90;;;;;;4863451;29;20387;-83
2023/08/30 02:01:22;;;;;;;4.15;3.00;;;16.20;99.90;;;;;;4846959;29;20089;-83
2023/08/30 02:03:47;;;;;;;4.80;2.65;;;16.20;99.90;;;;;;4846535;29;20132;-82
2023/08/30 02:06:26;;;;;;;3.40;2.72;;;16.20;99.90;;;;;;4846808;29;20036;-82
2023/08/30 02:09:26;;;;;;;5.75;2.80;;;16.20;99.90;;;;;;4862928;29;20790;-83
2023/08/30 02:11:53;;;;;;;4.13;2.88;;;16.20;99.90;;;;;;4836175;29;20576;-83
2023/08/30 02:14:20;;;;;;;6.22;2.60;;;16.20;99.90;;;;;;4846847;29;20056;-83
2023/08/30 02:16:47;;;;;;;4.25;2.78;;;16.20;99.90;;;;;;4846356;29;20034;-83
2023/08/30 02:19:16;;;;;;;4.55;2.88;;;16.20;99.90;;;;;;4846576;29;20100;-83
2023/08/30 02:21:42;;;;;;;3.20;2.38;;;16.20;99.90;;;;;;4862801;29;20026;-83
2023/08/30 02:24:08;;;;;;;2.97;2.38;;;16.20;99.90;;;;;;4846859;29;20033;-82
2023/08/30 02:26:34;;;;;;;3.28;2.33;;;16.20;99.90;;;;;;4862501;29;20534;-83
2023/08/30 02:28:59;;;;;;;2.55;2.35;;;16.20;99.90;;;;;;4846817;29;20037;-82
2023/08/30 02:31:25;;;;;;;3.38;2.70;;;16.10;99.90;;;;;;4863213;29;20037;-82
2023/08/30 02:33:50;;;;;;;4.00;2.70;;;16.20;99.90;;;;;;4845479;29;20033;-83
2023/08/30 02:36:16;;;;;;;5.32;2.92;;;16.10;99.90;;;;;;4846677;29;20033;-83
2023/08/30 02:38:42;;;;;;;3.78;2.70;;;16.10;99.90;;;;;;4862282;29;20025;-83
2023/08/30 02:41:07;;;;;;;2.65;2.40;;;16.10;99.90;;;;;;4846091;29;20463;-82
2023/08/30 02:43:33;;;;;;;4.88;3.00;;;16.20;99.90;;;;;;4861708;29;20068;-88
2023/08/30 02:45:58;;;;;;;3.15;2.67;;;16.10;99.90;;;;;;4845937;29;20026;-83
2023/08/30 02:48:24;;;;;;;5.80;3.10;;;16.10;99.90;;;;;;4862259;29;20026;-82
2023/08/30 02:50:49;;;;;;;4.38;3.22;;;16.20;99.90;;;;;;4845372;29;20068;-83
2023/08/30 02:53:15;;;;;;;3.75;2.78;;;16.10;99.90;;;;;;4845648;29;20372;-82
2023/08/30 02:55:40;;;;;;;3.75;2.80;;;16.20;99.90;;;;;;4861866;29;20062;-83
2023/08/30 02:58:06;;;;;;;5.05;3.10;;;16.20;99.90;;;;;;4846368;29;20040;-83
2023/08/30 03:00:34;;;;;;;3.78;3.05;;;16.10;99.90;;;;;;4862504;29;20456;-85
2023/08/30 03:02:59;;;;;;;3.33;2.70;;;16.10;99.90;;;;;;4846069;29;20041;-84
2023/08/30 03:05:25;;;;;;;4.75;2.80;;;16.10;99.90;;;;;;4845764;29;20088;-84
2023/08/30 03:07:52;;;;;;;5.15;3.00;;;16.10;99.90;;;;;;4845052;29;20800;-82
2023/08/30 03:10:18;;;;;;;5.28;3.05;;;16.10;99.90;;;;;;4845492;29;20034;-82
2023/08/30 03:12:43;;;;;;;3.90;2.92;;;16.10;99.90;;;;;;4844930;29;20041;-83
2023/08/30 03:15:09;;;;;;;5.88;3.60;;;16.10;99.90;;;;;;4861927;29;20089;-82
2023/08/30 03:17:36;;;;;;;4.22;3.10;;;16.10;99.90;;;;;;4845129;29;20396;-87
2023/08/30 03:20:03;;;;;;;4.90;3.00;;;16.10;99.90;;;;;;4845918;29;20030;-82
2023/08/30 03:22:30;;;;;;;4.05;3.25;;;16.10;99.90;;;;;;4845707;29;20527;-82
2023/08/30 03:24:56;;;;;;;3.78;3.30;;;16.10;99.90;;;;;;4844908;29;20044;-82
2023/08/30 03:27:21;;;;;;;5.45;2.80;;;16.10;99.90;;;;;;4845285;29;20026;-81
2023/08/30 03:29:47;;;;;;;4.20;2.72;;;16.00;99.90;;;;;;4845207;29;20490;-82
2023/08/30 03:32:15;;;;;;;4.95;3.20;;;16.10;99.90;;;;;;4861804;29;20108;-81
2023/08/30 03:34:44;;;;;;;4.63;3.00;;;16.00;99.90;;;;;;4861515;29;20044;-82
2023/08/30 03:37:10;;;;;;;4.55;3.00;;;16.00;99.90;;;;;;4845658;29;20502;-81
2023/08/30 03:39:35;;;;;;;4.70;3.10;;;16.00;99.90;;;;;;4845303;29;20057;-86
2023/08/30 03:42:01;;;;;;;4.88;3.00;;;16.00;99.90;;;;;;4861734;29;20033;-81
2023/08/30 03:44:26;;;;;;;3.65;2.92;;;16.00;99.90;;;;;;4845213;29;20132;-82
2023/08/30 03:46:52;;;;;;;4.60;2.97;;;15.90;99.90;;;;;;4844710;29;20029;-82
2023/08/30 03:49:18;;;;;;;4.78;3.03;;;15.90;99.90;;;;;;4845409;29;20075;-82
2023/08/30 03:51:43;;;;;;;4.72;3.20;;;15.90;99.90;;;;;;4861485;29;20048;-82
2023/08/30 03:54:13;;;;;;;3.58;2.80;;;15.90;99.90;;;;;;4861838;29;20049;-82
2023/08/30 03:56:38;;;;;;;3.85;2.55;;;15.90;99.90;;;;;;4845307;29;20037;-84
2023/08/30 03:59:04;;;;;;;3.88;2.80;;;15.90;99.90;;;;;;4861710;29;20041;-82
2023/08/30 04:01:30;;;;;;;4.53;3.20;;;15.90;99.90;;;;;;4845049;29;20101;-82
2023/08/30 04:03:55;;;;;;;3.35;2.90;;;15.90;99.90;;;;;;4844872;29;20029;-82
2023/08/30 04:06:21;;;;;;;3.97;2.95;;;15.90;99.90;;;;;;4845373;29;20531;-82
2023/08/30 04:08:47;;;;;;;5.80;3.15;;;15.90;99.90;;;;;;4861058;29;20057;-82
2023/08/30 04:11:12;;;;;;;5.28;3.40;;;15.90;99.90;;;;;;4845261;29;20061;-82
2023/08/30 04:13:38;;;;;;;3.58;3.17;;;15.90;99.90;;;;;;4844828;29;20390;-83
2023/08/30 04:16:04;;;;;;;5.03;3.22;;;15.80;99.90;;;;;;4861810;29;20034;-82
2023/08/30 04:18:29;;;;;;;5.50;3.30;;;15.80;99.90;;;;;;4845121;29;20442;-82
2023/08/30 04:20:58;;;;;;;4.32;3.50;;;15.80;99.90;;;;;;4844666;29;20029;-82
2023/08/30 04:23:23;;;;;;;3.80;3.05;;;15.80;99.90;;;;;;4845211;29;20034;-81
2023/08/30 04:25:49;;;;;;;6.40;3.63;;;15.80;99.90;;;;;;4844730;29;20033;-82
2023/08/30 04:28:14;;;;;;;5.03;3.25;;;15.80;99.90;;;;;;4845052;29;20029;-82
2023/08/30 04:30:40;;;;;;;5.00;3.50;;;15.70;99.90;;;;;;4860665;29;20105;-86
2023/08/30 04:33:06;;;;;;;6.18;3.20;;;15.70;99.90;;;;;;4845013;29;20143;-82
2023/08/30 04:35:31;;;;;;;3.50;3.20;;;15.70;99.90;;;;;;4844988;29;20539;-82
2023/08/30 04:37:59;;;;;;;4.43;3.20;;;15.70;99.90;;;;;;4844540;29;20089;-82
2023/08/30 04:40:24;;;;;;;9.00;3.80;;;15.80;99.90;;;;;;4844878;29;20082;-82
2023/08/30 04:42:50;;;;;;;7.05;3.60;;;15.70;99.90;;;;;;4844349;29;20375;-82
2023/08/30 04:45:15;;;;;;;6.68;3.05;;;15.70;99.90;;;;;;4844841;29;20036;-82
2023/08/30 04:47:43;;;;;;;4.70;3.30;;;15.80;99.90;;;;;;4855187;29;20526;-87
2023/08/30 04:50:09;;;;;;;5.25;3.10;;;15.80;99.90;;;;;;4863258;29;20033;-82
2023/08/30 04:52:35;;;;;;;3.63;3.03;;;15.80;99.90;;;;;;4879616;29;20042;-82
2023/08/30 04:55:00;;;;;;;5.50;3.20;;;15.80;99.90;;;;;;4862521;29;20329;-82
2023/08/30 04:57:26;;;;;;;4.85;3.22;;;15.80;99.90;;;;;;4865513;29;20116;-82
2023/08/30 04:59:51;;;;;;;4.88;3.20;;;15.80;99.90;;;;;;4882498;29;20049;-82
2023/08/30 05:02:17;;;;;;;6.47;3.25;;;15.90;99.90;;;;;;4866285;29;20059;-82
2023/08/30 05:04:43;;;;;;;3.40;3.10;;;15.90;99.90;;;;;;4866121;29;20033;-84
2023/08/30 05:07:08;;;;;;;3.83;3.13;;;15.80;99.90;;;;;;4866421;29;20466;-82
2023/08/30 05:09:34;;;;;;;5.38;3.35;;;15.90;99.90;;;;;;4882821;29;20085;-82
2023/08/30 05:12:00;;;;;;;5.05;3.35;;;15.90;99.90;;;;;;4865840;29;20037;-82
2023/08/30 05:14:26;;;;;;;8.00;4.10;;;15.90;99.90;;;;;;4866251;29;20439;-82
2023/08/30 05:16:52;;;;;;;5.70;3.80;;;15.90;99.90;;;;;;4865435;29;20085;-82
2023/08/30 05:19:18;;;;;;;6.65;3.85;;;15.90;99.90;;;;;;4866231;29;20029;-82
2023/08/30 05:21:44;;;;;;;7.00;3.45;;;15.90;99.90;;;;;;4865628;29;20493;-83
2023/08/30 05:24:10;;;;;;;4.22;3.03;;;15.90;99.90;;;;;;4865996;29;20029;-82
2023/08/30 05:26:36;;;;;;;4.25;2.97;;;15.90;99.90;;;;;;4865882;29;20531;-81
2023/08/30 05:29:02;;;;;;;5.10;3.47;;;15.90;99.90;;;;;;4865338;29;20021;-82
2023/08/30 05:31:28;;;;;;;6.38;3.60;;;15.90;99.90;;;;;;4882278;29;20029;-82
2023/08/30 05:33:54;;;;;;;5.13;4.10;;;16.00;99.90;;;;;;4865321;29;20103;-83
2023/08/30 05:36:19;;;;;;;6.97;3.60;;;15.90;99.90;;;;;;4866047;29;20125;-82
2023/08/30 05:38:45;;;;;;;5.95;3.83;;;16.00;99.90;;;;;;4865490;29;20025;-84
2023/08/30 05:41:10;;;;;;;5.63;3.33;;;15.90;99.90;;;;;;4882315;29;20120;-82
2023/08/30 05:43:36;;;;;;;4.95;3.55;;;15.90;99.90;;;;;;4881986;29;20033;-82
2023/08/30 05:46:02;;;;;;;5.93;3.42;;;15.90;99.90;;;;;;4865140;29;20605;-82
2023/08/30 05:48:29;;;;;;;4.85;3.70;;;15.90;99.90;;;;;;4865476;29;20356;-83
2023/08/30 05:50:54;;;;;;;7.18;4.18;;;15.90;99.90;;;;;;4880535;29;20033;-83
2023/08/30 05:53:20;;;;;;;4.93;3.55;;;15.90;99.90;;;;;;4865742;29;20530;-82
2023/08/30 05:55:46;;;;;;;4.95;3.90;;;15.90;99.90;;;;;;4865064;29;20522;-84
2023/08/30 05:58:11;;;;;;;5.22;3.75;;;16.00;99.90;;;;;;4865178;29;20059;-81
2023/08/30 06:00:37;;;;;;;4.75;3.67;;;16.00;99.90;;;;;;4865519;29;20037;-82
2023/08/30 06:03:03;;;;;;;4.57;3.50;;;16.00;99.90;;;;;;4865110;29;20048;-82
2023/08/30 06:05:29;;;;;;;5.18;3.85;;;16.00;99.90;;;;;;4865230;29;20029;-82
2023/08/30 06:07:54;;;;;;;5.60;3.70;;;16.00;99.90;;;;;;4880615;29;20478;-82
2023/08/30 06:10:20;;;;;;;5.50;3.50;;;16.00;99.90;;;;;;4865666;29;20039;-82
2023/08/30 06:12:46;;;;;;;7.22;3.80;;;16.00;99.90;;;;;;4865107;29;20036;-85
2023/08/30 06:15:11;;;;;;;4.78;3.40;;;16.00;99.90;;;;;;4865334;29;20043;-82
2023/08/30 06:17:37;;;;;;;4.63;3.58;;;16.00;99.90;;;;;;4865491;29;20025;-81
2023/08/30 06:20:03;;;;;;;7.53;3.40;;;16.00;99.90;;;;;;4865917;29;20041;-83
2023/08/30 06:22:28;;;;;;;4.20;3.20;;;15.90;99.90;;;;;;4865943;29;20493;-82
2023/08/30 06:24:54;;;;;;;7.80;3.80;;;16.00;99.90;;;;;;4865213;29;20033;-82
2023/08/30 06:27:20;;;;;;;10.40;4.32;;;16.00;99.90;;;;;;4865450;29;20029;-82
2023/08/30 06:29:46;;;;;;;4.45;3.45;;;16.00;99.90;;;;;;4866021;29;20037;-84
2023/08/30 06:32:11;;;;;;;10.50;3.97;;;16.00;99.90;;;;;;4865218;29;20534;-83
2023/08/30 06:34:37;;;;;;;5.75;3.30;;;16.00;99.90;;;;;;4871994;29;20061;-83
2023/08/30 06:37:03;;;;;;;6.10;3.58;;;16.00;99.90;;;;;;4865319;29;20076;-84
2023/08/30 06:39:36;;;;;;;10.45;3.40;;;16.00;99.90;;;;;;4865172;29;20029;-83
2023/08/30 06:42:02;;;;;;;5.38;3.72;;;16.00;99.90;;;;;;4864740;29;20029;-82
2023/08/30 06:44:29;;;;;;;4.32;3.10;;;16.00;99.90;;;;;;4878670;29;20464;-85
2023/08/30 06:46:56;;;;;;;5.85;3.33;;;16.10;99.90;;;;;;4846534;29;20033;-84
2023/08/30 06:49:22;;;;;;;7.05;3.20;;;16.10;99.90;;;;;;4855173;29;20038;-84
2023/08/30 06:51:48;;;;;;;4.47;3.38;;;16.10;99.90;;;;;;4854008;29;20467;-87
2023/08/30 06:54:14;;;;;;;3.63;3.05;;;16.10;99.90;;;;;;4861987;29;20042;-84
2023/08/30 06:56:39;;;;;;;3.50;2.70;;;16.20;99.90;;;;;;4864663;29;20041;-84
2023/08/30 06:59:05;;;;;;;5.47;3.05;;;16.20;99.90;;;;;;4880957;29;20028;-84
2023/08/30 07:01:31;;;;;;;5.15;2.67;;;16.10;99.90;;;;;;4855206;29;20065;-85
2023/08/30 07:03:56;;;;;;;3.80;2.97;;;16.20;99.90;;;;;;4862241;29;20040;-83
2023/08/30 07:06:22;;;;;;;5.18;2.53;;;16.20;99.90;;;;;;4845680;29;20074;-84
2023/08/30 07:08:47;;;;;;;4.55;3.13;;;16.20;99.90;;;;;;4845498;29;20034;-88
2023/08/30 07:11:13;;;;;;;2.90;2.60;;;16.20;99.90;;;;;;4845653;29;20538;-84
2023/08/30 07:13:38;;;;;;;2.63;2.42;;;16.20;99.90;;;;;;4845828;29;20120;-83
2023/08/30 07:16:04;;;;;;;3.65;2.83;;;16.20;99.90;;;;;;4845296;29;20466;-83
2023/08/30 07:18:30;;;;;;;4.65;2.60;;;16.30;99.90;;;;;;4845870;29;20041;-83
2023/08/30 07:20:55;;;;;;;3.50;2.75;;;16.20;99.90;;;;;;4844849;29;20033;-83
2023/08/30 07:23:21;;;;;;;3.70;2.70;;;16.30;99.90;;;;;;4862027;29;20066;-85
2023/08/30 07:25:46;;;;;;;3.85;2.88;;;16.30;99.90;;;;;;4845693;29;20037;-89
2023/08/30 07:28:12;;;;;;;3.97;2.45;;;16.40;99.90;;;;;;4862162;29;20034;-83
2023/08/30 07:30:38;;;;;;;3.10;2.30;;;16.30;99.90;;;;;;4845631;29;20037;-85
2023/08/30 07:33:04;;;;;;;3.95;2.20;;;16.40;99.90;;;;;;4861603;29;20036;-84
2023/08/30 07:35:33;;;;;;;2.70;1.98;;;16.40;99.90;;;;;;4845501;29;20038;-84
2023/08/30 07:37:59;;;;;;;3.92;2.13;;;16.50;99.90;;;;;;4845470;29;20029;-84
2023/08/30 07:40:26;;;;;;;4.55;2.20;;;16.50;99.90;;;;;;4845816;29;20033;-85
2023/08/30 07:42:52;;;;;;;3.58;2.03;;;16.60;99.90;;;;;;4845663;29;20115;-91
2023/08/30 07:45:18;;;;;;;2.63;1.75;;;16.60;99.90;;;;;;4845292;29;20037;-82
2023/08/30 07:47:43;;;;;;;5.03;2.30;;;16.60;99.90;;;;;;4845503;29;20034;-83
2023/08/30 07:50:09;;;;;;;2.97;2.00;;;16.60;99.90;;;;;;4844502;29;20068;-83
2023/08/30 07:52:35;;;;;;;2.17;1.77;;;16.60;99.90;;;;;;4862143;29;20030;-83
2023/08/30 07:55:00;;;;;;;5.70;1.98;;;16.70;99.90;;;;;;4861326;29;20037;-83
2023/08/30 07:57:27;;;;;;;4.10;2.05;;;16.70;99.90;;;;;;4845355;29;20463;-82
2023/08/30 07:59:52;;;;;;;3.35;1.83;;;16.80;99.90;;;;;;4844831;29;20034;-84
2023/08/30 08:02:18;;;;;;;2.53;2.20;;;16.80;99.90;;;;;;4845299;29;20410;-83
2023/08/30 08:04:43;;;;;;;2.97;2.00;;;16.90;99.90;;;;;;4861973;29;20037;-83
2023/08/30 08:07:09;;;;;;;3.70;2.30;;;17.00;99.90;;;;;;4845129;29;20278;-83
2023/08/30 08:09:34;;;;;;;8.93;7.15;;;17.00;99.90;;;;;;4845502;29;20049;-83
2023/08/30 08:12:00;;;;;;;3.58;2.78;;;17.00;99.90;;;;;;4844848;29;20030;-83
2023/08/30 08:14:26;;;;;;;3.90;2.90;;;17.10;99.90;;;;;;4845279;29;20181;-83
2023/08/30 08:16:51;;;;;;;3.40;2.70;;;17.10;99.90;;;;;;4844862;29;20036;-84
2023/08/30 08:19:17;;;;;;;4.53;2.33;;;17.20;99.90;;;;;;4845375;29;20470;-83
2023/08/30 08:21:43;;;;;;;2.42;2.08;;;17.20;99.90;;;;;;4845414;29;20058;-82
2023/08/30 08:24:08;;;;;;;2.50;2.28;;;17.30;99.90;;;;;;4844847;29;20372;-83
2023/08/30 08:26:34;;;;;;;3.17;1.77;;;17.40;99.90;;;;;;4845278;29;20025;-83
2023/08/30 08:28:59;;;;;;;2.38;1.95;;;17.50;99.90;;;;;;4844967;29;20033;-83
2023/08/30 08:31:25;;;;;;;3.58;1.98;;;17.50;99.90;;;;;;4846245;29;20481;-83
2023/08/30 08:34:04;;;;;;;2.92;2.08;;;17.60;99.90;;;;;;4848189;29;20029;-87
2023/08/30 08:36:30;;;;;;;1.92;1.73;;;17.70;99.90;;;;;;4848581;29;20093;-83
2023/08/30 08:38:55;;;;;;;3.65;1.90;;;17.70;99.90;;;;;;4847576;29;20144;-84
2023/08/30 08:41:25;;;;;;;2.17;2.00;;;17.80;99.90;;;;;;4865109;29;20435;-83
2023/08/30 08:43:51;;;;;;;2.58;2.00;;;17.80;99.90;;;;;;4848467;29;20030;-83
2023/08/30 08:46:19;;;;;;;3.42;2.13;;;17.90;99.90;;;;;;4848890;29;20029;-82
2023/08/30 08:48:46;;;;;;;2.63;1.67;;;17.90;99.90;;;;;;4848736;29;20105;-83
2023/08/30 08:51:13;;;;;;;3.70;2.00;;;18.00;99.90;;;;;;4847903;29;20610;-82
2023/08/30 08:53:39;;;;;;;3.13;1.83;;;18.00;99.90;;;;;;4848234;29;20037;-83
2023/08/30 08:56:07;;;;;;;1.73;1.60;;;18.00;99.90;;;;;;4864363;29;20042;-82
2023/08/30 08:58:35;;;;;;;8.23;3.28;;;18.10;99.90;;;;;;4847894;29;20038;-83
2023/08/30 09:01:04;;;;;;;3.13;1.70;;;18.20;99.90;;;;;;4847469;29;20494;-83
2023/08/30 09:03:30;;;;;;;2.58;1.80;;;18.20;99.90;;;;;;4864608;29;20029;-83
2023/08/30 09:05:56;;;;;;;2.83;1.63;;;18.30;99.90;;;;;;4848084;29;20486;-84
2023/08/30 09:08:21;;;;;;;2.65;1.55;;;18.40;99.90;;;;;;4864810;29;20059;-82
2023/08/30 09:10:50;;;;;;;5.22;1.90;;;18.40;99.90;;;;;;4848720;29;20034;-83
2023/08/30 09:13:16;;;;;;;2.00;1.80;;;18.40;99.90;;;;;;4863807;29;20081;-83
2023/08/30 09:15:41;;;;;;;5.13;1.85;;;18.40;99.90;;;;;;4864652;29;20062;-83
2023/08/30 09:18:17;;;;;;;2.25;1.63;;;18.40;99.90;;;;;;4863430;29;20072;-84
2023/08/30 09:20:43;;;;;;;5.85;2.40;;;18.30;99.90;;;;;;4864529;29;20018;-83
2023/08/30 09:23:21;;;;;;;2.78;2.03;;;18.40;99.90;;;;;;4847265;29;20108;-84
2023/08/30 09:25:53;;;;;;;2.65;2.05;;;18.40;99.90;;;;;;4847564;29;20069;-83
2023/08/30 09:28:19;;;;;;;4.18;1.80;;;18.50;99.90;;;;;;4863557;29;20025;-83
2023/08/30 09:30:51;;;;;;;2.30;1.90;;;18.50;99.90;;;;;;4847908;29;20147;-84
2023/08/30 09:33:31;;;;;;;3.38;1.80;;;18.60;99.90;;;;;;4847553;29;20034;-84
2023/08/30 09:35:57;;;;;;;2.80;1.90;;;18.70;99.90;;;;;;4847673;29;20061;-89
2023/08/30 09:38:23;;;;;;;2.35;1.90;;;18.70;99.90;;;;;;4864083;29;20025;-84
2023/08/30 09:40:49;;;;;;;2.08;1.70;;;18.80;99.90;;;;;;4847830;29;20036;-83
2023/08/30 09:43:21;;;;;;;3.00;2.05;;;18.90;99.90;;;;;;4847296;29;20034;-89
2023/08/30 09:45:47;;;;;;;2.20;2.00;;;19.00;99.90;;;;;;4847618;29;20033;-84
2023/08/30 09:48:14;;;;;;;1.92;1.60;;;18.90;99.90;;;;;;4846665;29;20033;-86
2023/08/30 09:50:44;;;;;;;2.60;1.73;;;19.00;99.90;;;;;;4863914;29;20025;-84
2023/08/30 09:53:15;;;;;;;2.10;1.63;;;19.00;99.90;;;;;;4846857;29;20136;-85
2023/08/30 09:55:42;;;;;;;5.68;1.67;;;19.10;99.90;;;;;;4862972;29;20471;-84
2023/08/30 09:58:09;;;;;;;2.67;1.85;;;19.10;99.90;;;;;;4846966;29;20057;-83
2023/08/30 10:00:36;;;;;;;2.90;2.15;;;19.10;99.90;;;;;;4848792;29;20030;-84
2023/08/30 10:03:02;;;;;;;2.17;1.70;;;19.00;99.90;;;;;;4865049;29;20100;-84
2023/08/30 10:05:29;;;;;;;1.80;1.50;;;19.10;99.90;;;;;;4881941;29;20057;-84
2023/08/30 10:07:55;;;;;;;2.70;2.20;;;19.10;99.90;;;;;;4881764;29;20032;-84
2023/08/30 10:10:22;;;;;;;3.40;1.70;;;19.20;99.90;;;;;;4880702;29;20071;-84
2023/08/30 10:12:49;;;;;;;2.40;1.90;;;19.30;99.90;;;;;;4880615;29;20064;-84
2023/08/30 10:15:15;;;;;;;2.25;1.70;;;19.40;99.90;;;;;;4864752;29;20025;-84
2023/08/30 10:17:45;;;;;;;3.38;1.58;;;19.30;99.90;;;;;;4865270;29;20029;-84
2023/08/30 10:20:14;;;;;;;2.00;1.80;;;19.40;99.90;;;;;;4881061;29;20037;-83
2023/08/30 10:22:41;;;;;;;1.80;1.65;;;19.40;99.90;;;;;;4865617;29;20052;-85
2023/08/30 10:25:11;;;;;;;3.92;1.98;;;19.40;99.90;;;;;;4865260;29;20029;-85
2023/08/30 10:27:39;;;;;;;2.45;2.00;;;19.40;99.90;;;;;;4881373;29;20482;-85
2023/08/30 10:30:07;;;;;;;2.65;2.00;;;19.40;99.90;;;;;;4864704;29;20032;-86
2023/08/30 10:32:39;;;;;;;2.17;1.65;;;19.30;99.90;;;;;;4864898;29;20044;-85
2023/08/30 10:35:05;;;;;;;4.57;2.17;;;19.20;99.90;;;;;;4879959;29;20041;-86
2023/08/30 10:37:30;;;;;;;4.78;2.22;;;19.20;99.90;;;;;;4865543;29;20029;-86
2023/08/30 10:40:03;;;;;;;3.47;1.70;;;19.20;99.90;;;;;;4865259;29;20029;-86
2023/08/30 10:42:29;;;;;;;2.80;1.98;;;19.10;99.90;;;;;;4881726;29;20048;-86
2023/08/30 10:44:58;;;;;;;3.38;1.63;;;19.10;99.90;;;;;;4881273;29;20040;-87
2023/08/30 10:47:29;;;;;;;2.17;1.95;;;19.10;99.90;;;;;;4864603;29;20036;-87
2023/08/30 10:49:55;;;;;;;2.97;1.83;;;19.10;99.90;;;;;;4864983;29;20112;-87
2023/08/30 10:52:22;;;;;;;2.63;2.00;;;19.10;99.90;;;;;;4880878;29;20039;-87
2023/08/30 10:54:48;;;;;;;2.83;2.30;;;19.10;99.90;;;;;;4880265;29;20048;-87
2023/08/30 10:57:15;;;;;;;3.75;1.98;;;19.00;99.90;;;;;;4864801;29;20036;-88
2023/08/30 11:00:09;;;;;;;5.82;2.38;;;19.10;99.90;;;;;;4862360;29;20048;-86
2023/08/30 11:02:37;;;;;;;6.38;2.40;;;19.20;99.90;;;;;;4845934;29;20069;-87
2023/08/30 11:05:05;;;;;;;3.15;2.08;;;19.20;99.90;;;;;;4861904;29;20068;-91
2023/08/30 11:07:31;;;;;;;3.33;1.90;;;19.30;99.90;;;;;;4845848;29;20030;-86
2023/08/30 11:09:57;;;;;;;5.05;1.88;;;19.40;99.90;;;;;;4861533;29;20021;-86
2023/08/30 11:12:23;;;;;;;3.28;1.92;;;19.50;99.90;;;;;;4889346;29;20127;-87
2023/08/30 11:14:49;;;;;;;3.85;1.95;;;19.50;99.90;;;;;;4882909;29;20040;-86
2023/08/30 11:17:19;;;;;;;3.05;2.00;;;19.60;99.90;;;;;;4897978;29;20035;-85
2023/08/30 11:19:45;;;;;;;6.07;2.08;;;19.60;99.90;;;;;;4882556;29;20071;-86
2023/08/30 11:22:16;;;;;;;2.65;2.17;;;19.60;99.90;;;;;;4863023;29;20040;-80
2023/08/30 11:24:43;;;;;;;4.20;1.90;;;19.60;99.90;;;;;;4861000;29;20475;-80
2023/08/30 11:27:09;;;;;;;3.22;1.77;;;19.60;99.90;;;;;;4862073;29;20036;-81
2023/08/30 11:29:35;;;;;;;4.50;1.70;;;19.70;99.90;;;;;;4860747;29;20037;-80
2023/08/30 11:32:01;;;;;;;2.80;2.15;;;19.80;99.90;;;;;;4867414;29;20048;-89
2023/08/30 11:34:26;;;;;;;3.88;1.58;;;19.90;99.90;;;;;;4869961;29;20044;-87
2023/08/30 11:36:52;;;;;;;4.90;1.90;;;20.00;99.90;;;;;;4883167;29;20025;-87
2023/08/30 11:39:18;;;;;;;2.10;1.90;;;20.00;99.90;;;;;;4868033;29;20025;-86
2023/08/30 11:41:44;;;;;;;2.03;1.45;;;20.10;99.90;;;;;;4880700;29;20391;-86
2023/08/30 11:44:10;;;;;;;2.70;1.90;;;20.20;99.90;;;;;;4863622;29;20036;-87
2023/08/30 11:46:35;;;;;;;2.13;1.80;;;20.30;99.90;;;;;;4880603;29;20040;-86
2023/08/30 11:49:02;;;;;;;3.28;1.58;;;20.30;99.90;;;;;;4861428;29;20036;-88
2023/08/30 11:51:29;;;;;;;2.40;1.65;;;20.40;99.90;;;;;;4863516;29;20044;-87
2023/08/30 11:53:55;;;;;;;2.63;1.60;;;20.40;99.90;;;;;;4863895;29;20097;-87
2023/08/30 11:56:22;;;;;;;2.15;1.70;;;20.40;99.90;;;;;;4869595;29;20061;-93
2023/08/30 11:58:48;;;;;;;2.42;1.80;;;20.40;99.90;;;;;;4858444;29;20028;-87
2023/08/30 12:01:14;;;;;;;1.48;1.30;;;20.50;99.90;;;;;;4884560;29;20497;-83
2023/08/30 12:03:39;;;;;;;1.70;1.30;;;20.50;99.90;;;;;;4836973;29;20037;-88
2023/08/30 12:06:14;;;;;;;3.50;1.52;;;20.60;99.90;;;;;;4847689;29;20030;-91
2023/08/30 12:08:40;;;;;;;2.92;1.50;;;20.70;99.90;;;;;;4877875;29;20033;-88
2023/08/30 12:11:06;;;;;;;2.22;1.50;;;20.70;99.90;;;;;;4883962;29;20535;-88
2023/08/30 12:13:33;;;;;;;2.67;1.70;;;20.80;99.90;;;;;;4867563;29;20037;-85
2023/08/30 12:16:00;;;;;;;3.53;1.67;;;20.90;99.90;;;;;;4867228;29;20064;-87
2023/08/30 12:18:44;;;;;;;4.63;1.23;;;21.00;99.90;;;;;;4867200;29;20065;-88
2023/08/30 12:21:09;;;;;;;1.88;1.48;;;21.10;99.90;;;;;;4866865;29;20052;-88
2023/08/30 12:23:35;;;;;;;2.95;1.67;;;21.20;99.90;;;;;;4867501;29;20379;-83
2023/08/30 12:26:03;;;;;;;2.92;1.40;;;21.30;99.90;;;;;;4866802;29;20120;-84
2023/08/30 12:28:30;;;;;;;1.95;1.55;;;21.30;99.90;;;;;;4849381;29;20030;-84
2023/08/30 12:30:56;;;;;;;2.35;1.20;;;21.40;99.90;;;;;;4851216;29;20033;-85
2023/08/30 12:33:22;;;;;;;3.95;1.70;;;21.50;99.90;;;;;;4872724;29;20041;-86
2023/08/30 12:35:48;;;;;;;5.13;1.55;;;21.70;99.90;;;;;;4853726;29;20463;-85
2023/08/30 12:38:19;;;;;;;2.25;1.40;;;21.80;99.90;;;;;;4848159;29;20065;-83
2023/08/30 12:40:47;;;;;;;4.20;1.50;;;22.00;99.90;;;;;;4848360;29;20026;-85
2023/08/30 12:43:14;;;;;;;4.10;1.42;;;22.20;99.90;;;;;;4848338;29;20034;-85